Time;durP1;ratioP1;P1;durP2;ratioP2;P2;SDS_P1;SDS_P2;PMS_P1;PMS_P2;Temp;Humidity;BMP_temperature;BMP_pressure;BME280_temperature;BME280_humidity;BME280_pressure;Samples;Min_cycle;Max_cycle;Signal;HPM_P1;HPM_P2
2022/01/06 00:01:19;;;;;;;7.53;2.00;;;3.00;99.90;;;;;;5101752;28;20024;-76
2022/01/06 00:03:46;;;;;;;16.85;2.15;;;3.00;99.90;;;;;;5104194;28;20056;-76
2022/01/06 00:06:12;;;;;;;18.17;2.22;;;3.00;99.90;;;;;;5094075;28;20031;-76
2022/01/06 00:08:38;;;;;;;14.45;2.03;;;3.00;99.90;;;;;;5093882;28;20028;-76
2022/01/06 00:11:06;;;;;;;6.07;1.60;;;3.00;99.90;;;;;;5093807;28;20024;-76
2022/01/06 00:13:44;;;;;;;9.18;1.80;;;3.00;99.90;;;;;;5095069;28;20012;-76
2022/01/06 00:16:40;;;;;;;8.73;2.05;;;2.90;99.90;;;;;;5094662;28;20020;-76
2022/01/06 00:24:26;;;;;;;11.00;1.90;;;2.80;99.90;;;;;;5093914;28;20031;-76
2022/01/06 00:26:52;;;;;;;12.38;1.98;;;2.80;99.90;;;;;;5093666;28;20052;-77
2022/01/06 00:29:19;;;;;;;8.95;2.05;;;2.80;99.90;;;;;;5093635;28;20490;-77
2022/01/06 00:31:45;;;;;;;8.48;1.92;;;2.80;99.90;;;;;;5095862;28;20092;-76
2022/01/06 00:34:11;;;;;;;8.63;1.92;;;2.80;99.90;;;;;;5094178;28;20128;-77
2022/01/06 00:36:41;;;;;;;9.77;2.00;;;2.80;99.90;;;;;;5095073;28;20431;-77
2022/01/06 00:39:08;;;;;;;10.18;1.77;;;2.80;99.90;;;;;;5094020;28;20028;-77
2022/01/06 00:41:35;;;;;;;5.05;1.80;;;2.70;99.90;;;;;;5093865;28;20468;-76
2022/01/06 00:44:03;;;;;;;11.05;2.28;;;2.70;99.90;;;;;;5094473;28;20042;-76
2022/01/06 00:46:29;;;;;;;4.32;1.60;;;2.60;99.90;;;;;;5093820;28;20085;-76
2022/01/06 00:48:55;;;;;;;7.75;1.90;;;2.60;99.90;;;;;;5095457;28;20484;-77
2022/01/06 00:51:21;;;;;;;6.93;1.73;;;2.60;99.90;;;;;;5094370;28;20452;-78
2022/01/06 00:53:46;;;;;;;10.27;2.05;;;2.60;99.90;;;;;;5095671;28;20016;-77
2022/01/06 00:56:12;;;;;;;11.43;3.47;;;2.60;99.90;;;;;;5112098;28;20032;-74
2022/01/06 00:58:37;;;;;;;12.60;3.30;;;2.60;99.90;;;;;;5115225;28;20043;-76
2022/01/06 01:01:03;;;;;;;10.43;2.50;;;2.40;99.90;;;;;;5094283;28;20412;-76
2022/01/06 01:03:29;;;;;;;11.23;2.20;;;2.60;99.90;;;;;;5094466;28;20362;-77
2022/01/06 01:05:56;;;;;;;8.85;2.25;;;2.60;99.90;;;;;;5096367;28;20027;-76
2022/01/06 01:08:25;;;;;;;11.95;1.92;;;2.60;99.90;;;;;;5107535;28;20509;-76
2022/01/06 01:10:53;;;;;;;9.95;2.20;;;2.60;99.90;;;;;;5105403;28;20024;-76
2022/01/06 01:13:27;;;;;;;12.18;2.22;;;2.50;99.90;;;;;;5094375;28;20020;-76
2022/01/06 01:15:56;;;;;;;9.55;2.05;;;2.50;99.90;;;;;;5092398;28;20016;-76
2022/01/06 01:18:23;;;;;;;18.42;2.10;;;2.50;99.90;;;;;;5091278;28;20055;-76
2022/01/06 01:20:50;;;;;;;8.52;1.80;;;2.40;99.90;;;;;;5092873;28;20456;-75
2022/01/06 01:23:18;;;;;;;11.57;2.35;;;2.40;99.90;;;;;;5091868;28;20480;-75
2022/01/06 01:25:44;;;;;;;8.48;2.35;;;2.40;99.90;;;;;;5093209;28;20112;-77
2022/01/06 01:28:11;;;;;;;9.85;2.25;;;2.40;99.90;;;;;;5094282;28;20031;-76
2022/01/06 01:30:53;;;;;;;12.15;2.50;;;2.40;99.90;;;;;;5094907;28;20437;-76
2022/01/06 01:33:19;;;;;;;7.80;1.85;;;2.40;99.90;;;;;;5095748;28;20028;-76
2022/01/06 01:35:45;;;;;;;13.95;2.17;;;2.40;99.90;;;;;;5097440;28;20094;-76
2022/01/06 01:38:11;;;;;;;17.88;2.10;;;2.30;99.90;;;;;;5104816;28;20141;-74
2022/01/06 01:40:37;;;;;;;10.88;2.13;;;2.30;99.90;;;;;;5096000;28;20020;-74
2022/01/06 01:43:03;;;;;;;6.25;1.50;;;2.40;99.90;;;;;;5093948;28;20043;-76
2022/01/06 01:45:32;;;;;;;15.20;2.75;;;2.40;99.90;;;;;;5097060;28;20052;-76
2022/01/06 01:48:00;;;;;;;13.63;2.13;;;2.30;99.90;;;;;;5113374;28;20047;-75
2022/01/06 01:50:25;;;;;;;8.90;2.00;;;2.30;99.90;;;;;;5116989;28;20019;-74
2022/01/06 01:52:54;;;;;;;12.07;2.05;;;2.30;99.90;;;;;;5099549;28;20169;-76
2022/01/06 01:55:24;;;;;;;13.48;2.33;;;2.30;99.90;;;;;;5102669;28;20005;-74
2022/01/06 01:57:51;;;;;;;10.10;2.05;;;2.30;99.90;;;;;;5120600;28;20038;-74
2022/01/06 02:00:19;;;;;;;11.07;2.13;;;2.20;99.90;;;;;;5119079;28;20020;-75
2022/01/06 02:02:45;;;;;;;6.95;1.80;;;2.20;99.90;;;;;;5120069;28;20036;-74
2022/01/06 02:05:11;;;;;;;14.18;2.45;;;2.20;99.90;;;;;;5120317;28;20018;-75
2022/01/06 02:07:39;;;;;;;8.85;2.22;;;2.20;99.90;;;;;;5120138;28;20095;-74
2022/01/06 02:10:06;;;;;;;9.55;2.17;;;2.20;99.90;;;;;;5119934;28;20033;-74
2022/01/06 02:12:36;;;;;;;6.70;1.92;;;2.20;99.90;;;;;;5120038;28;20012;-73
2022/01/06 02:15:02;;;;;;;9.77;1.80;;;2.30;99.90;;;;;;5119412;28;20024;-75
2022/01/06 02:17:28;;;;;;;7.75;2.00;;;2.20;99.90;;;;;;5111905;28;20169;-76
2022/01/06 02:19:58;;;;;;;12.75;2.00;;;2.30;99.90;;;;;;5099659;28;20052;-77
2022/01/06 02:22:25;;;;;;;9.25;1.67;;;2.30;99.90;;;;;;5094550;28;20478;-75
2022/01/06 02:24:51;;;;;;;11.80;2.22;;;2.30;99.90;;;;;;5095810;28;20020;-76
2022/01/06 02:27:21;;;;;;;7.78;1.88;;;2.30;99.90;;;;;;5094849;28;20024;-75
2022/01/06 02:29:48;;;;;;;10.65;1.75;;;2.30;99.90;;;;;;5095588;28;20020;-76
2022/01/06 02:32:16;;;;;;;10.85;2.15;;;2.30;99.90;;;;;;5095499;28;20451;-77
2022/01/06 02:34:45;;;;;;;14.10;2.10;;;2.30;99.90;;;;;;5096978;28;20036;-76
2022/01/06 02:37:12;;;;;;;8.68;1.67;;;2.30;99.90;;;;;;5100427;28;20107;-76
2022/01/06 02:39:38;;;;;;;18.33;2.67;;;2.30;99.90;;;;;;5100012;28;20028;-76
2022/01/06 02:42:05;;;;;;;12.05;2.35;;;2.30;99.90;;;;;;5095230;28;20031;-77
2022/01/06 02:44:31;;;;;;;14.20;2.40;;;2.20;99.90;;;;;;5095306;28;20093;-77
2022/01/06 02:46:56;;;;;;;17.42;2.90;;;2.20;99.90;;;;;;5095273;28;20485;-77
2022/01/06 02:49:22;;;;;;;11.07;2.08;;;2.20;99.90;;;;;;5083343;28;20036;-77
2022/01/06 02:51:48;;;;;;;13.00;2.20;;;2.20;99.90;;;;;;5098876;28;20031;-77
2022/01/06 02:54:14;;;;;;;16.25;2.65;;;2.20;99.90;;;;;;5093421;28;20040;-77
2022/01/06 02:56:43;;;;;;;11.68;2.97;;;2.20;99.90;;;;;;5094795;28;20024;-77
2022/01/06 02:59:09;;;;;;;15.95;3.38;;;2.10;99.90;;;;;;5095103;28;20077;-77
2022/01/06 03:01:42;;;;;;;14.85;3.42;;;2.10;99.90;;;;;;5094891;28;20411;-77
2022/01/06 03:04:09;;;;;;;20.60;3.40;;;2.10;99.90;;;;;;5094517;28;20034;-77
2022/01/06 03:06:34;;;;;;;12.65;2.78;;;2.10;99.90;;;;;;5092853;28;20028;-77
2022/01/06 03:09:00;;;;;;;13.18;2.88;;;2.00;99.90;;;;;;5094981;28;20130;-77
2022/01/06 03:11:26;;;;;;;15.15;2.80;;;2.00;99.90;;;;;;5097934;28;20012;-77
2022/01/06 03:13:53;;;;;;;18.70;2.60;;;2.00;99.90;;;;;;5095344;28;20444;-76
2022/01/06 03:16:19;;;;;;;13.13;2.53;;;2.00;99.90;;;;;;5094350;28;20024;-76
2022/01/06 03:18:44;;;;;;;11.50;2.53;;;2.00;99.90;;;;;;5095917;28;20086;-77
2022/01/06 03:21:10;;;;;;;12.30;3.13;;;2.00;99.90;;;;;;5095774;28;20084;-77
2022/01/06 03:23:35;;;;;;;16.45;2.47;;;2.00;99.90;;;;;;5093514;28;20095;-77
2022/01/06 03:26:01;;;;;;;12.65;2.28;;;2.00;99.90;;;;;;5095046;28;20020;-77
2022/01/06 03:28:26;;;;;;;11.35;2.20;;;2.00;99.90;;;;;;5093811;28;20477;-76
2022/01/06 03:30:52;;;;;;;11.77;2.30;;;2.00;99.90;;;;;;5094140;28;20024;-76
2022/01/06 03:33:18;;;;;;;8.45;2.28;;;2.00;99.90;;;;;;5093727;28;20094;-77
2022/01/06 03:35:43;;;;;;;6.38;1.92;;;2.00;99.90;;;;;;5091981;28;20370;-76
2022/01/06 03:38:09;;;;;;;9.05;1.85;;;2.00;99.90;;;;;;5094474;28;20093;-77
2022/01/06 03:40:35;;;;;;;8.95;2.10;;;2.00;99.90;;;;;;5094781;28;20028;-77
2022/01/06 03:43:00;;;;;;;10.80;1.90;;;2.00;99.90;;;;;;5094171;28;20020;-77
2022/01/06 03:45:26;;;;;;;8.63;1.85;;;2.00;99.90;;;;;;5093980;28;20027;-78
2022/01/06 03:47:52;;;;;;;14.63;2.80;;;2.10;99.90;;;;;;5094371;28;20039;-76
2022/01/06 03:50:17;;;;;;;7.38;2.08;;;2.00;99.90;;;;;;5095187;28;20380;-77
2022/01/06 03:52:44;;;;;;;9.40;2.10;;;2.00;99.90;;;;;;5094303;28;20020;-77
2022/01/06 03:55:12;;;;;;;13.55;2.58;;;2.00;99.90;;;;;;5094295;28;20504;-76
2022/01/06 03:57:38;;;;;;;12.35;2.60;;;2.00;99.90;;;;;;5093723;28;20028;-76
2022/01/06 04:00:09;;;;;;;12.63;2.70;;;2.00;99.90;;;;;;5092875;28;20361;-76
2022/01/06 04:02:35;;;;;;;26.35;5.85;;;2.00;99.90;;;;;;5093610;28;20499;-77
2022/01/06 04:05:05;;;;;;;13.88;4.13;;;2.00;99.90;;;;;;5094271;28;20054;-77
2022/01/06 04:07:32;;;;;;;9.80;2.97;;;2.00;99.90;;;;;;5092492;28;20507;-76
2022/01/06 04:09:58;;;;;;;13.95;2.47;;;1.90;99.90;;;;;;5091982;28;20477;-76
2022/01/06 04:12:23;;;;;;;12.63;2.35;;;2.00;99.90;;;;;;5093661;28;20073;-76
2022/01/06 04:14:49;;;;;;;8.57;2.40;;;1.90;99.90;;;;;;5093463;28;20448;-76
2022/01/06 04:17:14;;;;;;;11.73;2.85;;;2.00;99.90;;;;;;5091503;28;20055;-76
2022/01/06 04:19:40;;;;;;;14.20;2.53;;;2.00;99.90;;;;;;5091826;28;20028;-76
2022/01/06 04:22:06;;;;;;;8.85;2.30;;;2.00;99.90;;;;;;5091838;28;20040;-76
2022/01/06 04:24:32;;;;;;;12.88;2.30;;;2.00;99.90;;;;;;5093428;28;20020;-76
2022/01/06 04:26:58;;;;;;;11.63;2.70;;;2.00;99.90;;;;;;5093066;28;20039;-76
2022/01/06 04:29:24;;;;;;;12.40;2.70;;;2.00;99.90;;;;;;5092966;28;20077;-76
2022/01/06 04:31:49;;;;;;;9.70;2.22;;;1.90;99.90;;;;;;5093153;28;20095;-76
2022/01/06 04:34:15;;;;;;;13.55;2.65;;;1.90;99.90;;;;;;5091893;28;20492;-76
2022/01/06 04:36:47;;;;;;;14.10;2.60;;;1.90;99.90;;;;;;5094319;28;20020;-76
2022/01/06 04:39:12;;;;;;;12.20;2.83;;;1.80;99.90;;;;;;5093979;28;20036;-77
2022/01/06 04:41:38;;;;;;;16.60;2.95;;;1.80;99.90;;;;;;5093190;28;20078;-76
2022/01/06 04:44:04;;;;;;;15.68;3.28;;;1.80;99.90;;;;;;5091373;28;20293;-77
2022/01/06 04:46:29;;;;;;;10.10;2.55;;;1.80;99.90;;;;;;5093607;28;20027;-77
2022/01/06 04:48:55;;;;;;;13.38;2.63;;;1.70;99.90;;;;;;5094595;28;20032;-76
2022/01/06 04:51:20;;;;;;;11.95;2.72;;;1.70;99.90;;;;;;5103317;28;20020;-76
2022/01/06 04:53:46;;;;;;;14.15;3.00;;;1.70;99.90;;;;;;5112915;28;20016;-76
2022/01/06 04:56:11;;;;;;;8.10;2.50;;;1.70;99.90;;;;;;5092478;28;20077;-77
2022/01/06 04:58:37;;;;;;;14.43;2.83;;;1.70;99.90;;;;;;5095056;28;20508;-77
2022/01/06 05:01:03;;;;;;;14.50;2.72;;;1.70;99.90;;;;;;5099592;28;20016;-78
2022/01/06 05:03:28;;;;;;;18.52;2.53;;;1.80;99.90;;;;;;5117491;28;20020;-76
2022/01/06 05:05:54;;;;;;;13.05;2.85;;;1.80;99.90;;;;;;5115529;28;20032;-75
2022/01/06 05:08:20;;;;;;;20.27;4.15;;;1.80;99.90;;;;;;5092265;28;20035;-75
2022/01/06 05:10:45;;;;;;;14.25;3.83;;;1.80;99.90;;;;;;5096185;28;20016;-76
2022/01/06 05:13:11;;;;;;;11.95;3.58;;;1.80;99.90;;;;;;5102365;28;20039;-76
2022/01/06 05:15:37;;;;;;;16.27;3.40;;;1.80;99.90;;;;;;5098941;28;20021;-76
2022/01/06 05:18:03;;;;;;;15.63;3.05;;;1.90;99.90;;;;;;5095517;28;20454;-77
2022/01/06 05:20:30;;;;;;;11.20;2.40;;;1.90;99.90;;;;;;5098305;28;20024;-77
2022/01/06 05:22:57;;;;;;;13.20;2.55;;;1.90;99.90;;;;;;5115297;28;20028;-76
2022/01/06 05:25:26;;;;;;;19.52;5.57;;;1.90;99.90;;;;;;5110632;28;20032;-77
2022/01/06 05:27:52;;;;;;;18.52;6.70;;;1.90;99.90;;;;;;5096600;28;20028;-76
2022/01/06 05:30:19;;;;;;;16.40;4.45;;;1.90;99.90;;;;;;5097351;28;20024;-79
2022/01/06 05:32:44;;;;;;;12.57;2.60;;;1.90;99.90;;;;;;5097566;28;20161;-76
2022/01/06 05:35:10;;;;;;;10.85;2.45;;;1.90;99.90;;;;;;5097603;28;20055;-76
2022/01/06 05:37:36;;;;;;;14.57;3.00;;;1.80;99.90;;;;;;5096801;28;20027;-76
2022/01/06 05:40:02;;;;;;;15.38;3.22;;;1.70;99.90;;;;;;5097349;28;20036;-77
2022/01/06 05:42:28;;;;;;;14.80;3.60;;;1.70;99.90;;;;;;5095763;28;20016;-77
2022/01/06 05:44:53;;;;;;;14.73;3.60;;;1.70;99.90;;;;;;5097845;28;20016;-76
2022/01/06 05:47:19;;;;;;;12.80;2.67;;;1.70;99.90;;;;;;5100570;28;20024;-76
2022/01/06 05:49:44;;;;;;;15.23;3.72;;;1.70;99.90;;;;;;5098386;28;20024;-76
2022/01/06 05:52:10;;;;;;;19.77;5.45;;;1.70;99.90;;;;;;5100122;28;20081;-77
2022/01/06 05:54:36;;;;;;;12.95;4.60;;;1.70;99.90;;;;;;5102815;28;20032;-77
2022/01/06 05:57:01;;;;;;;14.80;4.75;;;1.80;99.90;;;;;;5119241;28;20016;-77
2022/01/06 05:59:29;;;;;;;24.00;7.85;;;1.80;99.90;;;;;;5120661;28;20012;-78
2022/01/06 06:01:54;;;;;;;23.67;7.57;;;1.80;99.90;;;;;;5117598;28;20467;-78
2022/01/06 06:04:20;;;;;;;21.67;6.45;;;1.80;99.90;;;;;;5115962;28;20063;-76
2022/01/06 06:06:46;;;;;;;23.27;4.35;;;1.90;99.90;;;;;;5097722;28;20430;-75
2022/01/06 06:09:11;;;;;;;15.30;2.58;;;1.90;99.90;;;;;;5097113;28;20271;-76
2022/01/06 06:11:37;;;;;;;15.48;3.53;;;2.00;99.90;;;;;;5096037;28;20380;-77
2022/01/06 06:14:03;;;;;;;14.95;4.82;;;2.00;99.90;;;;;;5095650;28;20016;-75
2022/01/06 06:16:28;;;;;;;15.55;3.53;;;2.10;99.90;;;;;;5100055;28;20050;-74
2022/01/06 06:18:54;;;;;;;18.08;3.70;;;2.10;99.90;;;;;;5102359;28;20024;-77
2022/01/06 06:21:19;;;;;;;17.33;3.03;;;2.20;99.90;;;;;;5100232;28;20024;-77
2022/01/06 06:23:45;;;;;;;17.13;3.03;;;2.20;99.90;;;;;;5098814;28;20158;-77
2022/01/06 06:26:11;;;;;;;19.90;3.95;;;2.20;99.90;;;;;;5110732;28;20072;-77
2022/01/06 06:28:37;;;;;;;20.13;5.50;;;2.10;99.90;;;;;;5118500;28;20020;-77
2022/01/06 06:31:02;;;;;;;24.75;5.85;;;2.10;99.90;;;;;;5119000;28;20134;-77
2022/01/06 06:33:28;;;;;;;19.17;6.20;;;2.00;99.90;;;;;;5114237;28;20027;-77
2022/01/06 06:35:54;;;;;;;16.00;4.00;;;2.00;99.90;;;;;;5118395;28;20016;-76
2022/01/06 06:38:20;;;;;;;8.60;3.30;;;2.00;99.90;;;;;;5118161;28;20031;-76
2022/01/06 06:40:45;;;;;;;16.10;4.00;;;1.90;99.90;;;;;;5110470;28;20119;-75
2022/01/06 06:43:14;;;;;;;14.15;3.47;;;1.90;99.90;;;;;;5117938;28;20024;-77
2022/01/06 06:45:41;;;;;;;13.93;3.55;;;1.90;99.90;;;;;;5118970;28;20087;-77
2022/01/06 06:48:07;;;;;;;16.00;4.43;;;1.90;99.90;;;;;;5118430;28;20020;-76
2022/01/06 06:50:33;;;;;;;17.33;3.92;;;1.90;99.90;;;;;;5113726;28;20026;-77
2022/01/06 06:52:59;;;;;;;24.75;3.47;;;1.90;99.90;;;;;;5100442;28;20056;-77
2022/01/06 06:55:25;;;;;;;17.05;3.58;;;1.90;99.90;;;;;;5096435;28;20143;-78
2022/01/06 06:57:50;;;;;;;15.63;3.35;;;1.90;99.90;;;;;;5097407;28;20131;-78
2022/01/06 07:00:16;;;;;;;18.08;2.97;;;1.90;99.90;;;;;;5100167;28;20056;-77
2022/01/06 07:02:43;;;;;;;16.45;3.03;;;1.90;99.90;;;;;;5097865;28;20442;-77
2022/01/06 07:05:08;;;;;;;11.65;3.10;;;1.90;99.90;;;;;;5098473;28;20491;-78
2022/01/06 07:07:35;;;;;;;11.18;3.38;;;1.90;99.90;;;;;;5096515;28;20103;-77
2022/01/06 07:10:01;;;;;;;19.23;4.32;;;1.90;99.90;;;;;;5097042;28;20116;-74
2022/01/06 07:12:26;;;;;;;9.27;3.28;;;2.00;99.90;;;;;;5095955;28;20149;-77
2022/01/06 07:14:52;;;;;;;16.48;4.50;;;1.90;99.90;;;;;;5098711;28;20412;-76
2022/01/06 07:17:18;;;;;;;17.52;4.43;;;2.00;99.90;;;;;;5100358;28;20023;-76
2022/01/06 07:19:44;;;;;;;16.10;4.60;;;2.00;99.90;;;;;;5112692;28;20078;-80
2022/01/06 07:22:09;;;;;;;17.52;3.85;;;2.00;99.90;;;;;;5106109;28;20040;-80
2022/01/06 07:24:36;;;;;;;15.15;4.05;;;2.00;99.90;;;;;;5098365;28;20028;-79
2022/01/06 07:27:03;;;;;;;17.95;4.40;;;2.00;99.90;;;;;;5096659;28;20074;-77
2022/01/06 07:29:29;;;;;;;11.40;3.72;;;1.90;99.90;;;;;;5097171;28;20103;-77
2022/01/06 07:31:54;;;;;;;14.65;3.88;;;1.90;99.90;;;;;;5097516;28;20094;-79
2022/01/06 07:34:20;;;;;;;18.13;4.55;;;1.80;99.90;;;;;;5096369;28;20028;-78
2022/01/06 07:36:45;;;;;;;13.02;3.97;;;1.80;99.90;;;;;;5096951;28;20020;-78
2022/01/06 07:39:11;;;;;;;16.95;4.63;;;1.80;99.90;;;;;;5103640;28;20402;-78
2022/01/06 07:41:37;;;;;;;23.45;4.65;;;1.80;99.90;;;;;;5101652;28;20085;-80
2022/01/06 07:44:07;;;;;;;17.58;4.00;;;1.80;99.90;;;;;;5097725;28;20032;-79
2022/01/06 07:46:35;;;;;;;17.92;4.03;;;1.80;99.90;;;;;;5100707;28;20020;-78
2022/01/06 07:49:01;;;;;;;21.45;5.03;;;1.90;99.90;;;;;;5108729;28;20027;-76
2022/01/06 07:51:30;;;;;;;18.17;4.18;;;1.90;99.90;;;;;;5108846;28;20076;-78
2022/01/06 07:53:56;;;;;;;17.63;4.85;;;2.00;99.90;;;;;;5105587;28;20156;-81
2022/01/06 07:56:22;;;;;;;16.95;4.25;;;2.00;99.90;;;;;;5101174;28;20032;-78
2022/01/06 07:58:48;;;;;;;7.82;3.05;;;2.00;99.90;;;;;;5100354;28;20024;-77
2022/01/06 08:01:14;;;;;;;15.52;3.20;;;2.00;99.90;;;;;;5103560;28;20024;-78
2022/01/06 08:03:41;;;;;;;26.15;9.38;;;2.00;99.90;;;;;;5099278;28;20024;-78
2022/01/06 08:06:07;;;;;;;34.72;10.38;;;1.90;99.90;;;;;;5105615;28;20028;-76
2022/01/06 08:08:33;;;;;;;13.20;3.97;;;2.00;99.90;;;;;;5115786;28;20062;-76
2022/01/06 08:11:00;;;;;;;20.95;3.40;;;2.00;99.90;;;;;;5101083;28;20082;-76
2022/01/06 08:13:25;;;;;;;22.17;3.95;;;2.10;99.90;;;;;;5097533;28;20020;-79
2022/01/06 08:15:51;;;;;;;12.95;3.70;;;2.20;99.90;;;;;;5107785;28;20024;-78
2022/01/06 08:18:16;;;;;;;14.02;3.03;;;2.10;99.90;;;;;;5113778;28;20035;-76
2022/01/06 08:20:42;;;;;;;13.40;3.15;;;2.20;99.90;;;;;;5112672;28;20047;-79
2022/01/06 08:23:08;;;;;;;22.08;3.85;;;2.20;99.90;;;;;;5102290;28;20071;-75
2022/01/06 08:25:34;;;;;;;12.20;3.30;;;2.20;99.90;;;;;;5096268;28;20057;-75
2022/01/06 08:28:00;;;;;;;10.70;2.78;;;2.30;99.90;;;;;;5096354;28;20119;-76
2022/01/06 08:30:26;;;;;;;22.05;3.40;;;2.30;99.90;;;;;;5099335;28;20054;-75
2022/01/06 08:32:52;;;;;;;11.98;3.10;;;2.30;99.90;;;;;;5099561;28;20047;-74
2022/01/06 08:35:18;;;;;;;20.98;3.50;;;2.40;99.90;;;;;;5093902;28;20043;-74
2022/01/06 08:37:44;;;;;;;12.60;3.05;;;2.40;99.90;;;;;;5094188;28;20462;-75
2022/01/06 08:40:11;;;;;;;23.48;3.35;;;2.40;99.90;;;;;;5093313;28;20030;-77
2022/01/06 08:42:36;;;;;;;11.23;3.05;;;2.50;99.90;;;;;;5094334;28;20485;-74
2022/01/06 08:45:03;;;;;;;18.00;3.58;;;2.50;99.90;;;;;;5093170;28;20036;-76
2022/01/06 08:47:29;;;;;;;16.92;3.78;;;2.50;99.90;;;;;;5092655;28;20024;-75
2022/01/06 08:49:56;;;;;;;15.38;3.95;;;2.60;99.90;;;;;;5092260;28;20400;-75
2022/01/06 08:52:22;;;;;;;11.40;3.30;;;2.80;99.90;;;;;;5082965;28;20031;-75
2022/01/06 08:54:48;;;;;;;10.65;3.20;;;3.00;99.90;;;;;;5079534;28;20085;-75
2022/01/06 08:57:14;;;;;;;12.85;3.20;;;3.00;99.90;;;;;;5090983;28;20013;-74
2022/01/06 08:59:39;;;;;;;20.95;6.80;;;3.00;99.90;;;;;;5097967;28;20048;-75
2022/01/06 09:02:05;;;;;;;58.78;19.60;;;2.90;99.90;;;;;;5082022;28;20028;-75
2022/01/06 09:04:31;;;;;;;18.67;3.72;;;2.90;99.90;;;;;;5077750;28;20029;-75
2022/01/06 09:06:58;;;;;;;15.70;3.60;;;2.90;99.90;;;;;;5077973;28;20032;-75
2022/01/06 09:09:24;;;;;;;8.10;2.75;;;2.90;99.90;;;;;;5091087;28;20020;-74
2022/01/06 09:11:50;;;;;;;17.88;3.67;;;3.10;99.90;;;;;;5100182;28;20032;-74
2022/01/06 09:14:16;;;;;;;11.43;2.80;;;3.10;99.90;;;;;;5080301;28;20111;-74
2022/01/06 09:16:42;;;;;;;11.80;3.20;;;3.30;99.90;;;;;;5076491;28;20473;-75
2022/01/06 09:19:08;;;;;;;13.05;2.75;;;4.00;99.90;;;;;;5076908;28;20020;-76
2022/01/06 09:21:34;;;;;;;13.90;2.92;;;5.10;99.90;;;;;;5077322;28;20447;-76
2022/01/06 09:24:01;;;;;;;12.38;2.45;;;;;;;;;;5077968;28;20470;-75
2022/01/06 09:26:27;;;;;;;8.82;2.97;;;7.40;99.90;;;;;;5075285;28;20029;-76
2022/01/06 09:28:53;;;;;;;20.45;3.47;;;8.10;99.90;;;;;;5091910;28;20033;-75
2022/01/06 09:31:18;;;;;;;11.23;2.95;;;8.60;99.90;;;;;;5093232;28;20094;-74
2022/01/06 09:33:44;;;;;;;13.70;3.08;;;9.20;99.90;;;;;;5096334;28;20219;-76
2022/01/06 09:36:10;;;;;;;13.55;3.17;;;9.40;99.90;;;;;;5096676;28;20025;-76
2022/01/06 09:38:36;;;;;;;14.75;3.38;;;9.00;99.90;;;;;;5097897;28;20008;-76
2022/01/06 09:41:05;;;;;;;11.60;3.47;;;8.50;99.90;;;;;;5092480;28;20430;-74
2022/01/06 09:43:32;;;;;;;14.95;3.33;;;8.00;99.90;;;;;;5084088;28;20050;-75
2022/01/06 09:46:08;;;;;;;15.68;2.75;;;7.50;99.90;;;;;;5081435;28;20025;-75
2022/01/06 09:48:38;;;;;;;16.67;3.75;;;6.90;99.90;;;;;;5077736;28;20021;-74
2022/01/06 09:51:05;;;;;;;14.20;2.97;;;6.50;99.90;;;;;;5077366;28;20012;-74
2022/01/06 09:53:30;;;;;;;8.57;2.90;;;6.10;99.90;;;;;;5076622;28;20017;-75
2022/01/06 09:55:56;;;;;;;14.77;2.40;;;5.80;99.90;;;;;;5076649;28;20073;-75
2022/01/06 09:58:27;;;;;;;20.00;2.75;;;5.60;99.90;;;;;;5076016;28;20036;-75
2022/01/06 10:00:55;;;;;;;12.77;2.33;;;5.40;99.90;;;;;;5077721;28;20035;-76
2022/01/06 10:03:21;;;;;;;11.55;2.22;;;5.20;99.90;;;;;;5078780;28;20036;-75
2022/01/06 10:05:51;;;;;;;12.25;3.42;;;4.90;99.90;;;;;;5075559;28;20024;-75
2022/01/06 10:08:28;;;;;;;15.55;3.10;;;4.70;99.90;;;;;;5074907;28;20031;-76
2022/01/06 10:11:08;;;;;;;17.23;2.47;;;4.60;99.90;;;;;;5078916;28;20016;-74
2022/01/06 10:13:33;;;;;;;17.33;4.68;;;4.50;99.90;;;;;;5079496;28;20027;-75
2022/01/06 10:15:59;;;;;;;15.52;2.95;;;4.40;99.90;;;;;;5075372;28;20021;-74
2022/01/06 10:18:24;;;;;;;11.38;2.30;;;4.50;99.90;;;;;;5075497;28;20032;-75
2022/01/06 10:20:52;;;;;;;10.20;2.80;;;4.40;99.90;;;;;;5076955;28;20077;-74
2022/01/06 10:23:18;;;;;;;11.30;2.88;;;4.50;99.90;;;;;;5082585;28;20024;-79
2022/01/06 10:25:49;;;;;;;17.33;2.75;;;4.50;99.90;;;;;;5086688;28;20032;-75
2022/01/06 10:28:20;;;;;;;14.68;4.25;;;4.60;99.90;;;;;;5077911;28;20103;-75
2022/01/06 10:30:49;;;;;;;27.13;9.13;;;4.60;99.90;;;;;;5074910;28;20111;-76
2022/01/06 10:33:19;;;;;;;16.80;3.13;;;4.60;99.90;;;;;;5075032;28;20029;-75
2022/01/06 10:35:46;;;;;;;9.68;3.05;;;4.60;99.90;;;;;;5075798;28;20393;-75
2022/01/06 10:38:12;;;;;;;12.23;2.80;;;4.60;99.90;;;;;;5076600;28;20028;-78
2022/01/06 10:40:38;;;;;;;10.57;2.50;;;4.60;99.90;;;;;;5077567;28;20021;-75
2022/01/06 10:43:06;;;;;;;16.33;2.90;;;4.60;99.90;;;;;;5076927;28;20059;-75
2022/01/06 10:45:34;;;;;;;10.77;2.88;;;4.50;99.90;;;;;;5081110;28;20090;-75
2022/01/06 10:48:02;;;;;;;7.68;2.20;;;4.50;99.90;;;;;;5080913;28;20020;-75
2022/01/06 10:50:35;;;;;;;17.42;2.13;;;4.50;99.90;;;;;;5079907;28;20032;-75
2022/01/06 10:53:06;;;;;;;10.07;2.40;;;4.60;99.90;;;;;;5077864;28;20052;-76
2022/01/06 10:55:40;;;;;;;10.23;2.75;;;4.60;99.90;;;;;;5076715;28;20386;-75
2022/01/06 10:58:25;;;;;;;10.38;2.72;;;4.70;99.90;;;;;;5077462;28;20020;-75
2022/01/06 11:01:01;;;;;;;13.30;2.58;;;4.70;99.90;;;;;;5074871;28;20029;-75
2022/01/06 11:03:29;;;;;;;33.72;12.40;;;4.80;99.90;;;;;;5077501;28;20079;-76
2022/01/06 11:05:57;;;;;;;57.03;20.17;;;4.80;99.90;;;;;;5081082;28;20027;-75
2022/01/06 11:08:26;;;;;;;29.27;10.02;;;4.90;99.90;;;;;;5080328;28;20024;-75
2022/01/06 11:13:37;;;;;;;17.15;2.72;;;5.00;99.90;;;;;;5079828;28;20044;-75
2022/01/06 11:16:04;;;;;;;12.45;2.60;;;5.10;99.90;;;;;;5082226;28;20025;-75
2022/01/06 11:18:31;;;;;;;12.70;2.95;;;5.20;99.90;;;;;;5083936;28;20032;-76
2022/01/06 11:21:09;;;;;;;10.57;3.05;;;5.20;99.90;;;;;;5084258;28;20074;-76
2022/01/06 11:23:35;;;;;;;15.70;2.83;;;5.30;99.90;;;;;;5090672;28;20024;-75
2022/01/06 11:26:11;;;;;;;12.68;3.55;;;5.30;99.90;;;;;;5087040;28;20088;-76
2022/01/06 11:28:37;;;;;;;17.58;3.20;;;5.30;99.90;;;;;;5081065;28;20440;-76
2022/01/06 11:31:18;;;;;;;17.60;4.85;;;5.30;99.90;;;;;;5090860;28;20048;-75
2022/01/06 11:33:45;;;;;;;10.32;3.60;;;5.40;99.90;;;;;;5098170;28;20020;-75
2022/01/06 11:36:32;;;;;;;18.13;3.33;;;5.50;99.90;;;;;;5098332;28;20068;-75
2022/01/06 11:39:00;;;;;;;20.88;3.05;;;5.50;99.90;;;;;;5095893;28;20013;-76
2022/01/06 11:41:33;;;;;;;19.15;8.10;;;5.40;99.90;;;;;;5097338;28;20016;-75
2022/01/06 11:44:01;;;;;;;110.38;49.20;;;5.50;99.90;;;;;;5098236;28;20009;-77
2022/01/06 11:46:39;;;;;;;25.95;8.20;;;5.60;99.90;;;;;;5097987;28;20076;-78
2022/01/06 11:49:05;;;;;;;17.90;5.28;;;5.70;99.90;;;;;;5097818;28;20036;-76
2022/01/06 11:51:36;;;;;;;14.10;2.53;;;5.80;99.90;;;;;;5097460;28;20092;-78
2022/01/06 11:54:17;;;;;;;12.82;2.20;;;5.90;99.90;;;;;;5098776;28;20024;-77
2022/01/06 11:56:52;;;;;;;13.02;2.33;;;6.50;99.90;;;;;;5093954;28;20034;-75
2022/01/06 11:59:32;;;;;;;22.77;4.28;;;8.60;99.90;;;;;;5079454;28;20544;-76
2022/01/06 12:01:58;;;;;;;18.33;2.60;;;9.10;99.90;;;;;;5075309;28;20023;-76
2022/01/06 12:04:24;;;;;;;14.10;3.53;;;10.70;99.90;;;;;;5074248;28;20024;-74
2022/01/06 12:07:01;;;;;;;16.73;6.50;;;12.20;99.90;;;;;;5072241;28;20020;-78
2022/01/06 12:09:27;;;;;;;15.10;2.53;;;13.40;99.90;;;;;;5074673;28;20024;-75
2022/01/06 12:12:07;;;;;;;13.27;2.50;;;14.40;99.90;;;;;;5078798;28;20024;-77
2022/01/06 12:14:33;;;;;;;7.88;2.30;;;15.40;98.60;;;;;;5074354;28;20032;-77
2022/01/06 12:17:06;;;;;;;6.85;2.28;;;16.30;93.10;;;;;;5072864;28;20028;-77
2022/01/06 12:19:32;;;;;;;13.27;2.28;;;16.90;87.20;;;;;;5072342;28;20032;-76
2022/01/06 12:21:58;;;;;;;11.27;2.17;;;17.30;80.00;;;;;;5076624;28;20047;-76
2022/01/06 12:24:24;;;;;;;10.27;2.22;;;18.00;73.90;;;;;;5073365;28;20035;-77
2022/01/06 12:26:49;;;;;;;6.00;2.22;;;18.40;68.60;;;;;;5071265;28;20033;-78
2022/01/06 12:29:21;;;;;;;16.75;3.90;;;18.40;66.10;;;;;;5071408;28;20025;-77
2022/01/06 12:31:48;;;;;;;12.43;3.42;;;18.80;63.10;;;;;;5072961;28;20031;-75
2022/01/06 12:34:15;;;;;;;65.47;39.35;;;18.80;61.40;;;;;;5075331;28;20027;-75
2022/01/06 12:36:43;;;;;;;32.65;17.98;;;19.00;60.00;;;;;;5080173;28;20016;-75
2022/01/06 12:39:20;;;;;;;26.85;12.98;;;19.10;58.40;;;;;;5083218;28;20124;-75
2022/01/06 12:41:47;;;;;;;12.18;3.75;;;20.00;56.30;;;;;;5080503;28;20021;-76
2022/01/06 12:44:21;;;;;;;8.10;2.22;;;20.10;55.40;;;;;;5077777;28;20112;-77
2022/01/06 12:46:47;;;;;;;25.75;12.75;;;19.50;54.50;;;;;;5076219;28;20056;-78
2022/01/06 12:49:13;;;;;;;21.52;9.80;;;19.80;55.40;;;;;;5077374;28;20048;-78
2022/01/06 12:51:42;;;;;;;10.27;3.10;;;20.20;55.40;;;;;;5072870;28;20024;-76
2022/01/06 12:54:11;;;;;;;17.65;4.80;;;19.80;53.00;;;;;;5072289;28;20020;-76
2022/01/06 12:56:40;;;;;;;7.82;2.00;;;20.30;53.60;;;;;;5073775;28;20103;-76